sensor_id;sensor_type;location;lat;lon;timestamp;temperature;humidity
9425;DHT22;17139;52.140;11.636;2023-07-09T00:00:14;20.90;36.60
9425;DHT22;17139;52.140;11.636;2023-07-09T00:02:41;20.80;36.80
9425;DHT22;17139;52.140;11.636;2023-07-09T00:05:12;20.70;36.70
9425;DHT22;17139;52.140;11.636;2023-07-09T00:07:40;20.70;36.80
9425;DHT22;17139;52.140;11.636;2023-07-09T00:10:15;20.60;36.70
9425;DHT22;17139;52.140;11.636;2023-07-09T00:12:42;21.20;38.10
9425;DHT22;17139;52.140;11.636;2023-07-09T00:15:11;20.90;36.80
9425;DHT22;17139;52.140;11.636;2023-07-09T00:17:39;20.80;36.90
9425;DHT22;17139;52.140;11.636;2023-07-09T00:20:11;20.60;36.90
9425;DHT22;17139;52.140;11.636;2023-07-09T00:22:40;20.50;37.00
9425;DHT22;17139;52.140;11.636;2023-07-09T00:25:09;20.40;37.00
9425;DHT22;17139;52.140;11.636;2023-07-09T00:27:41;20.30;37.10
9425;DHT22;17139;52.140;11.636;2023-07-09T00:30:15;20.30;37.10
9425;DHT22;17139;52.140;11.636;2023-07-09T00:32:42;20.20;37.20
9425;DHT22;17139;52.140;11.636;2023-07-09T00:35:10;20.20;37.00
9425;DHT22;17139;52.140;11.636;2023-07-09T00:37:39;20.20;37.20
9425;DHT22;17139;52.140;11.636;2023-07-09T00:40:12;20.10;37.10
9425;DHT22;17139;52.140;11.636;2023-07-09T00:42:45;20.10;37.20
9425;DHT22;17139;52.140;11.636;2023-07-09T00:45:18;20.30;38.10
9425;DHT22;17139;52.140;11.636;2023-07-09T00:47:48;20.30;37.30
9425;DHT22;17139;52.140;11.636;2023-07-09T00:50:31;20.10;37.10
9425;DHT22;17139;52.140;11.636;2023-07-09T00:53:02;20.00;37.10
9425;DHT22;17139;52.140;11.636;2023-07-09T00:55:40;19.90;37.10
9425;DHT22;17139;52.140;11.636;2023-07-09T00:58:13;19.90;37.30
9425;DHT22;17139;52.140;11.636;2023-07-09T01:00:46;19.80;37.30
9425;DHT22;17139;52.140;11.636;2023-07-09T01:03:23;19.80;37.40
9425;DHT22;17139;52.140;11.636;2023-07-09T01:05:56;20.10;38.50
9425;DHT22;17139;52.140;11.636;2023-07-09T01:08:24;19.90;37.50
9425;DHT22;17139;52.140;11.636;2023-07-09T01:10:53;19.80;37.50
9425;DHT22;17139;52.140;11.636;2023-07-09T01:13:21;20.60;39.20
9425;DHT22;17139;52.140;11.636;2023-07-09T01:15:48;20.30;37.70
9425;DHT22;17139;52.140;11.636;2023-07-09T01:18:16;20.10;37.70
9425;DHT22;17139;52.140;11.636;2023-07-09T01:20:43;19.90;37.80
9425;DHT22;17139;52.140;11.636;2023-07-09T01:23:12;19.70;37.80
9425;DHT22;17139;52.140;11.636;2023-07-09T01:25:46;19.60;37.90
9425;DHT22;17139;52.140;11.636;2023-07-09T01:28:18;19.60;38.00
9425;DHT22;17139;52.140;11.636;2023-07-09T01:30:46;19.50;37.90
9425;DHT22;17139;52.140;11.636;2023-07-09T01:33:20;19.90;39.50
9425;DHT22;17139;52.140;11.636;2023-07-09T01:35:48;19.80;38.20
9425;DHT22;17139;52.140;11.636;2023-07-09T01:38:16;19.60;38.30
9425;DHT22;17139;52.140;11.636;2023-07-09T01:40:43;19.50;38.20
9425;DHT22;17139;52.140;11.636;2023-07-09T01:43:12;19.40;38.10
9425;DHT22;17139;52.140;11.636;2023-07-09T01:45:39;19.30;38.10
9425;DHT22;17139;52.140;11.636;2023-07-09T01:48:07;19.30;38.10
9425;DHT22;17139;52.140;11.636;2023-07-09T01:50:39;19.20;38.20
9425;DHT22;17139;52.140;11.636;2023-07-09T01:53:07;19.10;38.10
9425;DHT22;17139;52.140;11.636;2023-07-09T01:55:36;19.10;38.20
9425;DHT22;17139;52.140;11.636;2023-07-09T01:58:03;19.10;38.30
9425;DHT22;17139;52.140;11.636;2023-07-09T02:00:34;19.80;40.30
9425;DHT22;17139;52.140;11.636;2023-07-09T02:03:01;19.50;38.60
9425;DHT22;17139;52.140;11.636;2023-07-09T02:05:31;19.30;39.10
9425;DHT22;17139;52.140;11.636;2023-07-09T02:07:58;19.20;38.80
9425;DHT22;17139;52.140;11.636;2023-07-09T02:10:26;19.10;38.70
9425;DHT22;17139;52.140;11.636;2023-07-09T02:12:54;19.00;38.80
9425;DHT22;17139;52.140;11.636;2023-07-09T02:15:21;18.90;39.60
9425;DHT22;17139;52.140;11.636;2023-07-09T02:17:48;18.80;38.90
9425;DHT22;17139;52.140;11.636;2023-07-09T02:20:18;18.80;38.90
9425;DHT22;17139;52.140;11.636;2023-07-09T02:22:45;18.60;38.90
9425;DHT22;17139;52.140;11.636;2023-07-09T02:25:12;18.60;39.00
9425;DHT22;17139;52.140;11.636;2023-07-09T02:27:39;19.30;41.50
9425;DHT22;17139;52.140;11.636;2023-07-09T02:30:09;19.10;39.50
9425;DHT22;17139;52.140;11.636;2023-07-09T02:32:37;18.90;39.50
9425;DHT22;17139;52.140;11.636;2023-07-09T02:35:04;18.80;39.50
9425;DHT22;17139;52.140;11.636;2023-07-09T02:37:31;18.60;39.40
9425;DHT22;17139;52.140;11.636;2023-07-09T02:39:58;18.50;39.40
9425;DHT22;17139;52.140;11.636;2023-07-09T02:42:25;18.50;39.60
9425;DHT22;17139;52.140;11.636;2023-07-09T02:44:52;18.40;39.60
9425;DHT22;17139;52.140;11.636;2023-07-09T02:47:21;18.30;39.50
9425;DHT22;17139;52.140;11.636;2023-07-09T02:49:48;18.30;39.70
9425;DHT22;17139;52.140;11.636;2023-07-09T02:52:15;18.20;39.60
9425;DHT22;17139;52.140;11.636;2023-07-09T02:54:42;18.60;41.90
9425;DHT22;17139;52.140;11.636;2023-07-09T02:57:09;18.40;40.10
9425;DHT22;17139;52.140;11.636;2023-07-09T02:59:36;18.20;40.00
9425;DHT22;17139;52.140;11.636;2023-07-09T03:02:04;19.10;42.90
9425;DHT22;17139;52.140;11.636;2023-07-09T03:04:32;18.80;40.80
9425;DHT22;17139;52.140;11.636;2023-07-09T03:07:00;18.60;40.60
9425;DHT22;17139;52.140;11.636;2023-07-09T03:09:27;18.40;40.40
9425;DHT22;17139;52.140;11.636;2023-07-09T03:11:55;18.20;40.30
9425;DHT22;17139;52.140;11.636;2023-07-09T03:14:22;18.20;40.30
9425;DHT22;17139;52.140;11.636;2023-07-09T03:16:49;18.10;40.30
9425;DHT22;17139;52.140;11.636;2023-07-09T03:19:16;18.10;40.50
9425;DHT22;17139;52.140;11.636;2023-07-09T03:21:44;18.00;40.80
9425;DHT22;17139;52.140;11.636;2023-07-09T03:24:12;18.00;40.60
9425;DHT22;17139;52.140;11.636;2023-07-09T03:26:40;18.00;40.70
9425;DHT22;17139;52.140;11.636;2023-07-09T03:29:07;18.60;43.50
9425;DHT22;17139;52.140;11.636;2023-07-09T03:31:34;18.40;41.10
9425;DHT22;17139;52.140;11.636;2023-07-09T03:34:01;18.20;40.90
9425;DHT22;17139;52.140;11.636;2023-07-09T03:36:28;18.10;41.00
9425;DHT22;17139;52.140;11.636;2023-07-09T03:38:57;18.00;41.00
9425;DHT22;17139;52.140;11.636;2023-07-09T03:41:24;17.90;41.00
9425;DHT22;17139;52.140;11.636;2023-07-09T03:43:51;17.90;41.00
9425;DHT22;17139;52.140;11.636;2023-07-09T03:46:19;17.90;40.90
9425;DHT22;17139;52.140;11.636;2023-07-09T03:48:46;17.90;41.00
9425;DHT22;17139;52.140;11.636;2023-07-09T03:51:13;18.80;44.10
9425;DHT22;17139;52.140;11.636;2023-07-09T03:53:40;18.60;41.80
9425;DHT22;17139;52.140;11.636;2023-07-09T03:56:08;18.60;43.10
9425;DHT22;17139;52.140;11.636;2023-07-09T03:58:36;18.50;41.90
9425;DHT22;17139;52.140;11.636;2023-07-09T04:01:03;18.30;41.60
9425;DHT22;17139;52.140;11.636;2023-07-09T04:03:30;18.20;41.50
9425;DHT22;17139;52.140;11.636;2023-07-09T04:05:57;18.20;41.60
9425;DHT22;17139;52.140;11.636;2023-07-09T04:08:24;18.20;41.60
9425;DHT22;17139;52.140;11.636;2023-07-09T04:10:53;18.10;41.50
9425;DHT22;17139;52.140;11.636;2023-07-09T04:13:22;18.10;41.60
9425;DHT22;17139;52.140;11.636;2023-07-09T04:15:49;18.10;41.70
9425;DHT22;17139;52.140;11.636;2023-07-09T04:18:16;18.70;44.20
9425;DHT22;17139;52.140;11.636;2023-07-09T04:20:43;18.70;42.10
9425;DHT22;17139;52.140;11.636;2023-07-09T04:23:11;18.50;41.70
9425;DHT22;17139;52.140;11.636;2023-07-09T04:25:39;18.50;41.80
9425;DHT22;17139;52.140;11.636;2023-07-09T04:28:06;18.50;41.70
9425;DHT22;17139;52.140;11.636;2023-07-09T04:30:34;18.50;41.60
9425;DHT22;17139;52.140;11.636;2023-07-09T04:33:02;18.50;41.50
9425;DHT22;17139;52.140;11.636;2023-07-09T04:35:29;18.60;41.60
9425;DHT22;17139;52.140;11.636;2023-07-09T04:37:56;18.60;41.20
9425;DHT22;17139;52.140;11.636;2023-07-09T04:40:23;18.70;41.20
9425;DHT22;17139;52.140;11.636;2023-07-09T04:42:50;18.80;41.40
9425;DHT22;17139;52.140;11.636;2023-07-09T04:45:18;19.60;43.00
9425;DHT22;17139;52.140;11.636;2023-07-09T04:47:46;20.00;41.50
9425;DHT22;17139;52.140;11.636;2023-07-09T04:50:13;20.20;41.20
9425;DHT22;17139;52.140;11.636;2023-07-09T04:52:40;20.60;41.30
9425;DHT22;17139;52.140;11.636;2023-07-09T04:55:07;21.00;41.30
9425;DHT22;17139;52.140;11.636;2023-07-09T04:57:35;21.40;41.30
9425;DHT22;17139;52.140;11.636;2023-07-09T05:00:03;21.80;41.00
9425;DHT22;17139;52.140;11.636;2023-07-09T05:02:33;22.20;41.00
9425;DHT22;17139;52.140;11.636;2023-07-09T05:05:01;22.60;40.80
9425;DHT22;17139;52.140;11.636;2023-07-09T05:07:29;23.00;40.50
9425;DHT22;17139;52.140;11.636;2023-07-09T05:09:58;23.30;40.30
9425;DHT22;17139;52.140;11.636;2023-07-09T05:12:26;23.50;40.20
9425;DHT22;17139;52.140;11.636;2023-07-09T05:14:54;23.80;40.10
9425;DHT22;17139;52.140;11.636;2023-07-09T05:17:22;23.90;39.90
9425;DHT22;17139;52.140;11.636;2023-07-09T05:19:49;24.90;38.90
9425;DHT22;17139;52.140;11.636;2023-07-09T05:22:17;24.80;39.10
9425;DHT22;17139;52.140;11.636;2023-07-09T05:24:44;24.70;39.50
9425;DHT22;17139;52.140;11.636;2023-07-09T05:27:11;24.80;39.60
9425;DHT22;17139;52.140;11.636;2023-07-09T05:29:38;24.90;39.50
9425;DHT22;17139;52.140;11.636;2023-07-09T05:32:06;25.00;39.50
9425;DHT22;17139;52.140;11.636;2023-07-09T05:34:33;25.20;39.50
9425;DHT22;17139;52.140;11.636;2023-07-09T05:37:00;25.30;39.30
9425;DHT22;17139;52.140;11.636;2023-07-09T05:39:28;25.50;39.20
9425;DHT22;17139;52.140;11.636;2023-07-09T05:41:55;25.80;39.30
9425;DHT22;17139;52.140;11.636;2023-07-09T05:44:22;26.00;39.40
9425;DHT22;17139;52.140;11.636;2023-07-09T05:46:49;27.20;37.20
9425;DHT22;17139;52.140;11.636;2023-07-09T05:49:16;27.20;37.80
9425;DHT22;17139;52.140;11.636;2023-07-09T05:51:43;27.20;38.10
9425;DHT22;17139;52.140;11.636;2023-07-09T05:54:10;27.40;38.20
9425;DHT22;17139;52.140;11.636;2023-07-09T05:56:39;27.50;38.40
9425;DHT22;17139;52.140;11.636;2023-07-09T05:59:06;27.60;38.30
9425;DHT22;17139;52.140;11.636;2023-07-09T06:01:33;27.80;38.30
9425;DHT22;17139;52.140;11.636;2023-07-09T06:04:00;28.00;38.10
9425;DHT22;17139;52.140;11.636;2023-07-09T06:06:27;28.10;37.90
9425;DHT22;17139;52.140;11.636;2023-07-09T06:08:54;29.90;34.30
9425;DHT22;17139;52.140;11.636;2023-07-09T06:11:21;29.50;36.00
9425;DHT22;17139;52.140;11.636;2023-07-09T06:13:50;30.00;34.30
9425;DHT22;17139;52.140;11.636;2023-07-09T06:16:17;29.60;35.60
9425;DHT22;17139;52.140;11.636;2023-07-09T06:18:44;29.40;36.20
9425;DHT22;17139;52.140;11.636;2023-07-09T06:21:11;29.30;36.60
9425;DHT22;17139;52.140;11.636;2023-07-09T06:23:38;29.30;36.70
9425;DHT22;17139;52.140;11.636;2023-07-09T06:26:05;29.40;36.70
9425;DHT22;17139;52.140;11.636;2023-07-09T06:28:33;29.40;36.50
9425;DHT22;17139;52.140;11.636;2023-07-09T06:31:01;29.40;36.50
9425;DHT22;17139;52.140;11.636;2023-07-09T06:33:28;30.10;34.60
9425;DHT22;17139;52.140;11.636;2023-07-09T06:35:58;29.80;35.40
9425;DHT22;17139;52.140;11.636;2023-07-09T06:38:25;29.70;35.80
9425;DHT22;17139;52.140;11.636;2023-07-09T06:40:52;30.00;34.60
9425;DHT22;17139;52.140;11.636;2023-07-09T06:43:20;29.70;35.00
9425;DHT22;17139;52.140;11.636;2023-07-09T06:45:51;29.50;35.30
9425;DHT22;17139;52.140;11.636;2023-07-09T06:48:21;29.30;35.30
9425;DHT22;17139;52.140;11.636;2023-07-09T06:50:48;29.10;35.50
9425;DHT22;17139;52.140;11.636;2023-07-09T06:53:16;28.90;35.30
9425;DHT22;17139;52.140;11.636;2023-07-09T06:55:43;28.80;35.50
9425;DHT22;17139;52.140;11.636;2023-07-09T06:58:10;29.40;33.60
9425;DHT22;17139;52.140;11.636;2023-07-09T07:00:37;29.50;32.70
9425;DHT22;17139;52.140;11.636;2023-07-09T07:03:05;28.60;33.70
9425;DHT22;17139;52.140;11.636;2023-07-09T07:05:34;28.20;34.20
9425;DHT22;17139;52.140;11.636;2023-07-09T07:08:01;28.40;33.80
9425;DHT22;17139;52.140;11.636;2023-07-09T07:10:29;28.40;34.10
9425;DHT22;17139;52.140;11.636;2023-07-09T07:12:56;27.70;34.70
9425;DHT22;17139;52.140;11.636;2023-07-09T07:15:23;27.20;35.40
9425;DHT22;17139;52.140;11.636;2023-07-09T07:17:50;26.90;35.80
9425;DHT22;17139;52.140;11.636;2023-07-09T07:20:18;27.20;35.80
9425;DHT22;17139;52.140;11.636;2023-07-09T07:22:46;26.80;35.80
9425;DHT22;17139;52.140;11.636;2023-07-09T07:25:14;26.90;36.20
9425;DHT22;17139;52.140;11.636;2023-07-09T07:27:41;26.70;36.20
9425;DHT22;17139;52.140;11.636;2023-07-09T07:30:09;26.50;36.40
9425;DHT22;17139;52.140;11.636;2023-07-09T07:32:37;26.30;36.50
9425;DHT22;17139;52.140;11.636;2023-07-09T07:35:05;26.10;36.50
9425;DHT22;17139;52.140;11.636;2023-07-09T07:37:32;26.00;36.70
9425;DHT22;17139;52.140;11.636;2023-07-09T07:40:01;25.90;36.70
9425;DHT22;17139;52.140;11.636;2023-07-09T07:42:30;26.00;36.90
9425;DHT22;17139;52.140;11.636;2023-07-09T07:44:57;25.90;36.60
9425;DHT22;17139;52.140;11.636;2023-07-09T07:47:24;25.90;36.70
9425;DHT22;17139;52.140;11.636;2023-07-09T07:49:51;26.70;36.80
9425;DHT22;17139;52.140;11.636;2023-07-09T07:52:18;26.40;36.70
9425;DHT22;17139;52.140;11.636;2023-07-09T07:54:45;26.30;36.70
9425;DHT22;17139;52.140;11.636;2023-07-09T07:57:13;26.10;36.80
9425;DHT22;17139;52.140;11.636;2023-07-09T07:59:40;26.10;37.00
9425;DHT22;17139;52.140;11.636;2023-07-09T08:02:12;26.10;37.30
9425;DHT22;17139;52.140;11.636;2023-07-09T08:04:40;26.20;37.20
9425;DHT22;17139;52.140;11.636;2023-07-09T08:07:07;26.60;36.80
9425;DHT22;17139;52.140;11.636;2023-07-09T08:09:36;27.20;37.20
9425;DHT22;17139;52.140;11.636;2023-07-09T08:12:04;26.80;36.80
9425;DHT22;17139;52.140;11.636;2023-07-09T08:14:36;26.80;37.00
9425;DHT22;17139;52.140;11.636;2023-07-09T08:17:04;26.60;36.70
9425;DHT22;17139;52.140;11.636;2023-07-09T08:19:31;26.60;36.80
9425;DHT22;17139;52.140;11.636;2023-07-09T08:21:58;26.50;37.00
9425;DHT22;17139;52.140;11.636;2023-07-09T08:24:25;26.50;36.70
9425;DHT22;17139;52.140;11.636;2023-07-09T08:26:53;26.50;36.70
9425;DHT22;17139;52.140;11.636;2023-07-09T08:29:20;26.60;36.90
9425;DHT22;17139;52.140;11.636;2023-07-09T08:31:48;27.10;37.10
9425;DHT22;17139;52.140;11.636;2023-07-09T08:34:15;27.00;36.60
9425;DHT22;17139;52.140;11.636;2023-07-09T08:36:42;27.00;36.60
9425;DHT22;17139;52.140;11.636;2023-07-09T08:39:10;27.00;36.70
9425;DHT22;17139;52.140;11.636;2023-07-09T08:41:42;26.90;36.80
9425;DHT22;17139;52.140;11.636;2023-07-09T08:44:31;26.90;36.80
9425;DHT22;17139;52.140;11.636;2023-07-09T08:47:17;27.00;37.00
9425;DHT22;17139;52.140;11.636;2023-07-09T08:49:53;26.90;36.90
9425;DHT22;17139;52.140;11.636;2023-07-09T08:52:26;26.90;37.00
9425;DHT22;17139;52.140;11.636;2023-07-09T08:54:58;26.90;36.70
9425;DHT22;17139;52.140;11.636;2023-07-09T08:57:33;26.90;36.90
9425;DHT22;17139;52.140;11.636;2023-07-09T09:00:07;27.20;37.20
9425;DHT22;17139;52.140;11.636;2023-07-09T09:02:41;27.10;36.70
9425;DHT22;17139;52.140;11.636;2023-07-09T09:05:11;27.10;36.80
9425;DHT22;17139;52.140;11.636;2023-07-09T09:07:43;27.10;36.80
9425;DHT22;17139;52.140;11.636;2023-07-09T09:10:13;27.10;36.90
9425;DHT22;17139;52.140;11.636;2023-07-09T09:12:51;27.20;37.00
9425;DHT22;17139;52.140;11.636;2023-07-09T09:15:21;27.30;36.80
9425;DHT22;17139;52.140;11.636;2023-07-09T09:17:54;27.50;36.90
9425;DHT22;17139;52.140;11.636;2023-07-09T09:20:23;27.50;36.30
9425;DHT22;17139;52.140;11.636;2023-07-09T09:22:56;27.50;36.50
9425;DHT22;17139;52.140;11.636;2023-07-09T09:25:27;27.60;36.70
9425;DHT22;17139;52.140;11.636;2023-07-09T09:27:59;27.60;36.50
9425;DHT22;17139;52.140;11.636;2023-07-09T09:30:28;27.70;36.50
9425;DHT22;17139;52.140;11.636;2023-07-09T09:32:58;27.80;36.50
9425;DHT22;17139;52.140;11.636;2023-07-09T09:35:27;27.90;36.30
9425;DHT22;17139;52.140;11.636;2023-07-09T09:37:55;27.90;36.40
9425;DHT22;17139;52.140;11.636;2023-07-09T09:40:24;28.00;36.20
9425;DHT22;17139;52.140;11.636;2023-07-09T09:42:54;28.80;35.40
9425;DHT22;17139;52.140;11.636;2023-07-09T09:45:25;28.70;35.70
9425;DHT22;17139;52.140;11.636;2023-07-09T09:47:57;29.10;35.00
9425;DHT22;17139;52.140;11.636;2023-07-09T09:50:29;28.80;35.20
9425;DHT22;17139;52.140;11.636;2023-07-09T09:52:58;28.70;35.70
9425;DHT22;17139;52.140;11.636;2023-07-09T09:55:29;29.30;34.70
9425;DHT22;17139;52.140;11.636;2023-07-09T09:57:58;29.10;35.00
9425;DHT22;17139;52.140;11.636;2023-07-09T10:00:27;29.00;35.20
9425;DHT22;17139;52.140;11.636;2023-07-09T10:02:58;29.00;35.20
9425;DHT22;17139;52.140;11.636;2023-07-09T10:05:30;29.00;35.10
9425;DHT22;17139;52.140;11.636;2023-07-09T10:08:05;29.00;35.40
9425;DHT22;17139;52.140;11.636;2023-07-09T10:10:33;29.50;34.60
9425;DHT22;17139;52.140;11.636;2023-07-09T10:13:09;30.10;33.80
9425;DHT22;17139;52.140;11.636;2023-07-09T10:15:43;29.80;34.40
9425;DHT22;17139;52.140;11.636;2023-07-09T10:18:24;29.50;34.60
9425;DHT22;17139;52.140;11.636;2023-07-09T10:21:05;29.50;34.70
9425;DHT22;17139;52.140;11.636;2023-07-09T10:23:39;29.50;35.00
9425;DHT22;17139;52.140;11.636;2023-07-09T10:26:11;29.50;34.80
9425;DHT22;17139;52.140;11.636;2023-07-09T10:29:15;29.50;34.50
9425;DHT22;17139;52.140;11.636;2023-07-09T10:31:52;29.50;35.40
9425;DHT22;17139;52.140;11.636;2023-07-09T10:34:30;29.40;34.80
9425;DHT22;17139;52.140;11.636;2023-07-09T10:39:55;29.40;34.40
9425;DHT22;17139;52.140;11.636;2023-07-09T10:42:28;30.20;31.90
9425;DHT22;17139;52.140;11.636;2023-07-09T10:44:59;30.00;33.10
9425;DHT22;17139;52.140;11.636;2023-07-09T10:47:31;30.40;31.30
9425;DHT22;17139;52.140;11.636;2023-07-09T10:50:03;30.10;32.50
9425;DHT22;17139;52.140;11.636;2023-07-09T10:52:36;30.00;33.30
9425;DHT22;17139;52.140;11.636;2023-07-09T10:55:14;29.90;33.60
9425;DHT22;17139;52.140;11.636;2023-07-09T10:57:47;30.00;33.20
9425;DHT22;17139;52.140;11.636;2023-07-09T11:00:18;30.00;33.40
9425;DHT22;17139;52.140;11.636;2023-07-09T11:02:50;30.00;33.30
9425;DHT22;17139;52.140;11.636;2023-07-09T11:05:19;30.10;33.20
9425;DHT22;17139;52.140;11.636;2023-07-09T11:07:51;30.10;33.10
9425;DHT22;17139;52.140;11.636;2023-07-09T11:10:27;30.10;32.90
9425;DHT22;17139;52.140;11.636;2023-07-09T11:12:59;30.60;31.40
9425;DHT22;17139;52.140;11.636;2023-07-09T11:15:31;30.40;32.30
9425;DHT22;17139;52.140;11.636;2023-07-09T11:17:59;30.90;30.90
9425;DHT22;17139;52.140;11.636;2023-07-09T11:20:31;30.60;31.80
9425;DHT22;17139;52.140;11.636;2023-07-09T11:23:02;31.20;30.00
9425;DHT22;17139;52.140;11.636;2023-07-09T11:25:42;30.90;31.60
9425;DHT22;17139;52.140;11.636;2023-07-09T11:28:10;31.20;30.50
9425;DHT22;17139;52.140;11.636;2023-07-09T11:30:49;30.90;31.20
9425;DHT22;17139;52.140;11.636;2023-07-09T11:33:19;30.80;31.70
9425;DHT22;17139;52.140;11.636;2023-07-09T11:35:48;31.20;29.90
9425;DHT22;17139;52.140;11.636;2023-07-09T11:38:18;31.00;31.00
9425;DHT22;17139;52.140;11.636;2023-07-09T11:40:48;31.40;29.60
9425;DHT22;17139;52.140;11.636;2023-07-09T11:43:31;31.10;30.80
9425;DHT22;17139;52.140;11.636;2023-07-09T11:46:06;31.10;30.90
9425;DHT22;17139;52.140;11.636;2023-07-09T11:48:34;31.00;31.60
9425;DHT22;17139;52.140;11.636;2023-07-09T11:51:08;31.00;31.80
9425;DHT22;17139;52.140;11.636;2023-07-09T11:53:40;30.90;31.60
9425;DHT22;17139;52.140;11.636;2023-07-09T11:56:11;30.80;31.70
9425;DHT22;17139;52.140;11.636;2023-07-09T11:58:48;30.90;32.10
9425;DHT22;17139;52.140;11.636;2023-07-09T12:01:18;30.90;31.90
9425;DHT22;17139;52.140;11.636;2023-07-09T12:03:46;31.60;29.10
9425;DHT22;17139;52.140;11.636;2023-07-09T12:06:18;31.30;30.50
9425;DHT22;17139;52.140;11.636;2023-07-09T12:08:46;31.50;29.20
9425;DHT22;17139;52.140;11.636;2023-07-09T12:11:21;31.30;30.90
9425;DHT22;17139;52.140;11.636;2023-07-09T12:13:48;31.30;30.70
9425;DHT22;17139;52.140;11.636;2023-07-09T12:16:21;31.20;31.20
9425;DHT22;17139;52.140;11.636;2023-07-09T12:18:48;31.20;31.50
9425;DHT22;17139;52.140;11.636;2023-07-09T12:21:15;31.20;31.50
9425;DHT22;17139;52.140;11.636;2023-07-09T12:23:42;31.20;31.40
9425;DHT22;17139;52.140;11.636;2023-07-09T12:26:13;31.80;29.60
9425;DHT22;17139;52.140;11.636;2023-07-09T12:28:42;31.60;30.10
9425;DHT22;17139;52.140;11.636;2023-07-09T12:31:14;31.50;30.40
9425;DHT22;17139;52.140;11.636;2023-07-09T12:33:47;31.40;30.40
9425;DHT22;17139;52.140;11.636;2023-07-09T12:36:16;31.30;30.70
9425;DHT22;17139;52.140;11.636;2023-07-09T12:38:46;31.30;30.80
9425;DHT22;17139;52.140;11.636;2023-07-09T12:41:20;31.20;31.00
9425;DHT22;17139;52.140;11.636;2023-07-09T12:43:51;31.30;30.90
9425;DHT22;17139;52.140;11.636;2023-07-09T12:46:19;31.30;30.70
9425;DHT22;17139;52.140;11.636;2023-07-09T12:48:47;31.30;30.70
9425;DHT22;17139;52.140;11.636;2023-07-09T12:51:20;31.40;30.90
9425;DHT22;17139;52.140;11.636;2023-07-09T12:53:47;31.50;30.60
9425;DHT22;17139;52.140;11.636;2023-07-09T12:56:16;32.00;28.90
9425;DHT22;17139;52.140;11.636;2023-07-09T12:58:43;31.90;29.80
9425;DHT22;17139;52.140;11.636;2023-07-09T13:01:16;31.90;30.30
9425;DHT22;17139;52.140;11.636;2023-07-09T13:03:53;31.80;30.00
9425;DHT22;17139;52.140;11.636;2023-07-09T13:06:29;31.80;30.20
9425;DHT22;17139;52.140;11.636;2023-07-09T13:08:57;31.80;30.30
9425;DHT22;17139;52.140;11.636;2023-07-09T13:11:25;31.80;30.30
9425;DHT22;17139;52.140;11.636;2023-07-09T13:13:56;32.20;28.00
9425;DHT22;17139;52.140;11.636;2023-07-09T13:16:25;32.00;29.60
9425;DHT22;17139;52.140;11.636;2023-07-09T13:18:52;32.10;29.80
9425;DHT22;17139;52.140;11.636;2023-07-09T13:21:21;32.10;29.80
9425;DHT22;17139;52.140;11.636;2023-07-09T13:23:48;32.10;30.00
9425;DHT22;17139;52.140;11.636;2023-07-09T13:26:16;32.20;29.90
9425;DHT22;17139;52.140;11.636;2023-07-09T13:28:43;32.20;30.00
9425;DHT22;17139;52.140;11.636;2023-07-09T13:31:14;32.20;30.00
9425;DHT22;17139;52.140;11.636;2023-07-09T13:33:43;32.20;30.00
9425;DHT22;17139;52.140;11.636;2023-07-09T13:36:12;32.20;30.00
9425;DHT22;17139;52.140;11.636;2023-07-09T13:38:39;32.70;28.00
9425;DHT22;17139;52.140;11.636;2023-07-09T13:41:11;32.40;29.20
9425;DHT22;17139;52.140;11.636;2023-07-09T13:43:43;32.20;29.30
9425;DHT22;17139;52.140;11.636;2023-07-09T13:46:10;31.90;29.60
9425;DHT22;17139;52.140;11.636;2023-07-09T13:48:39;31.80;29.90
9425;DHT22;17139;52.140;11.636;2023-07-09T13:51:15;31.70;30.00
9425;DHT22;17139;52.140;11.636;2023-07-09T13:53:42;31.80;30.00
9425;DHT22;17139;52.140;11.636;2023-07-09T13:56:09;31.90;30.30
9425;DHT22;17139;52.140;11.636;2023-07-09T13:58:36;31.90;30.00
9425;DHT22;17139;52.140;11.636;2023-07-09T14:01:10;31.90;30.20
9425;DHT22;17139;52.140;11.636;2023-07-09T14:03:38;32.30;28.80
9425;DHT22;17139;52.140;11.636;2023-07-09T14:06:05;32.10;29.50
9425;DHT22;17139;52.140;11.636;2023-07-09T14:08:33;32.20;28.60
9425;DHT22;17139;52.140;11.636;2023-07-09T14:11:00;32.10;29.50
9425;DHT22;17139;52.140;11.636;2023-07-09T14:13:29;32.00;29.80
9425;DHT22;17139;52.140;11.636;2023-07-09T14:15:57;32.00;29.90
9425;DHT22;17139;52.140;11.636;2023-07-09T14:18:25;32.00;29.90
9425;DHT22;17139;52.140;11.636;2023-07-09T14:20:52;31.90;29.70
9425;DHT22;17139;52.140;11.636;2023-07-09T14:23:19;31.90;29.80
9425;DHT22;17139;52.140;11.636;2023-07-09T14:25:48;31.90;29.90
9425;DHT22;17139;52.140;11.636;2023-07-09T14:28:16;32.30;28.00
9425;DHT22;17139;52.140;11.636;2023-07-09T14:30:44;32.10;29.10
9425;DHT22;17139;52.140;11.636;2023-07-09T14:33:14;32.10;29.20
9425;DHT22;17139;52.140;11.636;2023-07-09T14:35:42;32.00;29.30
9425;DHT22;17139;52.140;11.636;2023-07-09T14:38:16;32.00;29.60
9425;DHT22;17139;52.140;11.636;2023-07-09T14:40:44;32.00;29.60
9425;DHT22;17139;52.140;11.636;2023-07-09T14:43:13;31.90;29.70
9425;DHT22;17139;52.140;11.636;2023-07-09T14:45:40;32.00;29.80
9425;DHT22;17139;52.140;11.636;2023-07-09T14:48:12;32.00;30.00
9425;DHT22;17139;52.140;11.636;2023-07-09T14:50:40;32.10;29.90
9425;DHT22;17139;52.140;11.636;2023-07-09T14:53:13;32.50;28.50
9425;DHT22;17139;52.140;11.636;2023-07-09T14:55:41;32.40;29.10
9425;DHT22;17139;52.140;11.636;2023-07-09T14:58:15;32.50;28.80
9425;DHT22;17139;52.140;11.636;2023-07-09T15:00:42;32.40;29.60
9425;DHT22;17139;52.140;11.636;2023-07-09T15:03:15;32.40;29.60
9425;DHT22;17139;52.140;11.636;2023-07-09T15:05:44;32.40;29.60
9425;DHT22;17139;52.140;11.636;2023-07-09T15:08:13;32.30;29.60
9425;DHT22;17139;52.140;11.636;2023-07-09T15:10:40;32.30;29.70
9425;DHT22;17139;52.140;11.636;2023-07-09T15:13:17;32.20;29.70
9425;DHT22;17139;52.140;11.636;2023-07-09T15:15:44;32.20;29.60
9425;DHT22;17139;52.140;11.636;2023-07-09T15:18:13;32.70;28.40
9425;DHT22;17139;52.140;11.636;2023-07-09T15:20:45;32.50;29.30
9425;DHT22;17139;52.140;11.636;2023-07-09T15:23:14;32.60;28.80
9425;DHT22;17139;52.140;11.636;2023-07-09T15:25:41;32.50;29.30
9425;DHT22;17139;52.140;11.636;2023-07-09T15:28:10;32.40;29.60
9425;DHT22;17139;52.140;11.636;2023-07-09T15:30:39;32.40;29.80
9425;DHT22;17139;52.140;11.636;2023-07-09T15:33:11;32.50;29.90
9425;DHT22;17139;52.140;11.636;2023-07-09T15:35:39;32.50;29.80
9425;DHT22;17139;52.140;11.636;2023-07-09T15:38:20;32.40;30.00
9425;DHT22;17139;52.140;11.636;2023-07-09T15:40:47;32.50;29.90
9425;DHT22;17139;52.140;11.636;2023-07-09T15:43:15;32.90;28.70
9425;DHT22;17139;52.140;11.636;2023-07-09T15:45:45;32.80;29.40